Time;durP1;ratioP1;P1;durP2;ratioP2;P2;SDS_P1;SDS_P2;PMS_P1;PMS_P2;Temp;Humidity;BMP_temperature;BMP_pressure;BME280_temperature;BME280_humidity;BME280_pressure;Samples;Min_cycle;Max_cycle;Signal;HPM_P1;HPM_P2
2022/03/23 00:02:03;;;;;;;75.03;50.75;;;;;;;;;;4809217;29;20511;-81
2022/03/23 00:04:30;;;;;;;70.25;50.42;;;;;;;;;;4809464;29;20380;-80
2022/03/23 00:06:56;;;;;;;81.07;52.20;;;;;;;;;;4825116;29;20061;-80
2022/03/23 00:09:22;;;;;;;70.85;50.20;;;;;;;;;;4824272;29;20145;-81
2022/03/23 00:11:48;;;;;;;73.63;49.88;;;;;;;;;;4824543;29;20046;-81
2022/03/23 00:14:14;;;;;;;78.78;52.58;;;;;;;;;;4809063;29;20060;-80
2022/03/23 00:16:40;;;;;;;74.63;51.25;;;;;;;;;;4824685;29;20299;-81
2022/03/23 00:19:07;;;;;;;75.70;51.03;;;;;;;;;;4824691;29;20471;-81
2022/03/23 00:21:33;;;;;;;74.07;51.28;;;;;;;;;;4809826;29;20145;-81
2022/03/23 00:23:59;;;;;;;75.43;50.30;;;;;;;;;;4824192;29;20089;-81
2022/03/23 00:26:25;;;;;;;75.43;50.47;;;;;;;;;;4809616;29;20129;-81
2022/03/23 00:28:52;;;;;;;75.55;50.42;;;;;;;;;;4809282;29;20057;-80
2022/03/23 00:31:20;;;;;;;68.80;47.55;;;;;;;;;;4824180;29;20104;-80
2022/03/23 00:33:48;;;;;;;70.30;48.67;;;;;;;;;;4824339;29;20452;-81
2022/03/23 00:36:15;;;;;;;74.22;48.85;;;;;;;;;;4808192;29;20116;-80
2022/03/23 00:38:41;;;;;;;76.63;50.90;;;;;;;;;;4824807;29;20137;-81
2022/03/23 00:41:08;;;;;;;71.40;47.33;;;;;;;;;;4808570;29;20050;-81
2022/03/23 00:43:35;;;;;;;77.85;52.33;;;;;;;;;;4824047;29;20454;-81
2022/03/23 00:46:01;;;;;;;71.03;49.47;;;;;;;;;;4823687;29;20136;-81
2022/03/23 00:48:27;;;;;;;67.95;49.15;;;;;;;;;;4824560;29;20058;-80
2022/03/23 00:50:54;;;;;;;73.47;48.47;;;;;;;;;;4809162;29;20049;-80
2022/03/23 00:53:20;;;;;;;70.93;48.63;;;;;;;;;;4808577;29;20065;-80
2022/03/23 00:55:46;;;;;;;70.22;48.75;;;;;;;;;;4823370;29;20042;-80
2022/03/23 00:58:12;;;;;;;73.78;51.00;;;;;;;;;;4823757;29;20046;-79
2022/03/23 01:00:41;;;;;;;74.10;50.63;;;;;;;;;;4827431;29;20050;-81
2022/03/23 01:03:07;;;;;;;78.88;53.33;;;;;;;;;;4828615;29;20058;-80
2022/03/23 01:05:33;;;;;;;80.55;52.40;;;;;;;;;;4823805;29;20050;-80
2022/03/23 01:07:59;;;;;;;75.40;52.35;;;;;;;;;;4815460;29;20494;-80
2022/03/23 01:10:25;;;;;;;78.68;52.10;;;;;;;;;;4828573;29;20061;-80
2022/03/23 01:12:51;;;;;;;76.13;50.25;;;;;;;;;;4812642;29;20056;-80
2022/03/23 01:15:22;;;;;;;80.50;52.70;;;;;;;;;;4827506;29;20050;-81
2022/03/23 01:17:49;;;;;;;76.50;51.47;;;;;;;;;;4827398;29;20053;-81
2022/03/23 01:20:16;;;;;;;71.30;48.70;;;;;;;;;;4812340;29;20054;-81
2022/03/23 01:22:43;;;;;;;76.47;50.00;;;;;;;;;;4812454;29;20061;-80
2022/03/23 01:25:10;;;;;;;78.75;48.70;;;;;;;;;;4827662;29;20085;-81
2022/03/23 01:27:36;;;;;;;72.93;49.88;;;;;;;;;;4827361;29;20137;-81
2022/03/23 01:30:08;;;;;;;75.00;48.38;;;;;;;;;;4812022;29;20046;-82
2022/03/23 01:32:34;;;;;;;70.10;49.00;;;;;;;;;;4827246;29;20376;-81
2022/03/23 01:35:00;;;;;;;71.88;49.95;;;;;;;;;;4826586;29;20605;-81
2022/03/23 01:37:26;;;;;;;69.50;48.10;;;;;;;;;;4828221;29;20046;-80
2022/03/23 01:39:53;;;;;;;71.78;47.80;;;;;;;;;;4811878;29;20313;-79
2022/03/23 01:42:19;;;;;;;71.95;49.50;;;;;;;;;;4826762;29;20050;-80
2022/03/23 01:44:45;;;;;;;71.00;48.60;;;;;;;;;;4827239;29;20050;-81
2022/03/23 01:47:16;;;;;;;69.00;47.40;;;;;;;;;;4811801;29;20053;-80
2022/03/23 01:50:00;;;;;;;69.03;46.65;;;;;;;;;;4827395;29;20054;-81
2022/03/23 01:52:29;;;;;;;69.90;46.45;;;;;;;;;;4812387;29;20136;-80
2022/03/23 01:54:56;;;;;;;72.32;48.78;;;;;;;;;;4826422;29;20046;-80
2022/03/23 01:57:23;;;;;;;72.47;48.72;;;;;;;;;;4826911;29;20054;-80
2022/03/23 01:59:49;;;;;;;70.97;48.50;;;;;;;;;;4826563;29;20121;-81
2022/03/23 02:02:15;;;;;;;72.05;49.50;;;;;;;;;;4811061;29;20057;-80
2022/03/23 02:04:41;;;;;;;72.75;50.55;;;;;;;;;;4826287;29;20050;-81
2022/03/23 02:07:07;;;;;;;74.53;50.85;;;;;;;;;;4810826;29;20144;-81
2022/03/23 02:09:34;;;;;;;73.25;48.28;;;;;;;;;;4826641;29;20053;-81
2022/03/23 02:12:05;;;;;;;81.50;49.97;;;;;;;;;;4826958;29;20548;-80
2022/03/23 02:14:31;;;;;;;78.25;51.15;;;;;;;;;;4811496;29;20444;-81
2022/03/23 02:16:57;;;;;;;68.40;46.13;;;;;;;;;;4826317;29;20227;-79
2022/03/23 02:19:23;;;;;;;73.88;50.15;;;;;;;;;;4826414;29;20060;-81
2022/03/23 02:21:49;;;;;;;75.57;48.20;;;;;;;;;;4811693;29;20143;-81
2022/03/23 02:24:16;;;;;;;73.05;47.95;;;;;;;;;;4826099;29;20054;-81
2022/03/23 02:26:43;;;;;;;68.32;46.40;;;;;;;;;;4826714;29;20050;-81
2022/03/23 02:29:09;;;;;;;70.07;46.30;;;;;;;;;;4811021;29;20459;-81
2022/03/23 02:31:36;;;;;;;74.25;48.60;;;;;;;;;;4826477;29;20053;-81
2022/03/23 02:34:03;;;;;;;71.00;46.60;;;;;;;;;;4811191;29;20049;-81
2022/03/23 02:36:30;;;;;;;73.57;47.55;;;;;;;;;;4825847;29;20062;-80
2022/03/23 02:38:56;;;;;;;74.38;47.03;;;;;;;;;;4811122;29;20050;-79
2022/03/23 02:41:22;;;;;;;69.45;46.30;;;;;;;;;;4810954;29;20057;-80
2022/03/23 02:43:48;;;;;;;80.70;47.88;;;;;;;;;;4811638;29;20123;-80
2022/03/23 02:46:15;;;;;;;67.75;45.72;;;;;;;;;;4826210;29;20145;-80
2022/03/23 02:48:41;;;;;;;71.65;46.30;;;;;;;;;;4825922;29;20046;-80
2022/03/23 02:51:07;;;;;;;66.75;44.13;;;;;;;;;;4810634;29;20502;-80
2022/03/23 03:02:26;;;;;;;66.63;46.03;;;;;;;;;;4824340;29;20060;-79
2022/03/23 03:04:52;;;;;;;63.10;45.42;;;;;;;;;;4807742;29;20058;-80
2022/03/23 03:07:18;;;;;;;73.60;45.63;;;;;;;;;;4810351;29;20049;-81
2022/03/23 03:09:45;;;;;;;74.68;44.42;;;;;;;;;;4825386;29;20075;-81
2022/03/23 03:12:11;;;;;;;69.65;45.08;;;;;;;;;;4810809;29;20140;-81
2022/03/23 03:14:41;;;;;;;70.30;45.85;;;;;;;;;;4825159;29;20053;-81
2022/03/23 03:17:08;;;;;;;70.03;45.38;;;;;;;;;;4825014;29;20561;-80
2022/03/23 03:19:35;;;;;;;66.55;46.25;;;;;;;;;;4825871;29;20050;-81
2022/03/23 03:22:02;;;;;;;70.43;45.80;;;;;;;;;;4810539;29;20050;-81
2022/03/23 03:24:28;;;;;;;77.07;48.22;;;;;;;;;;4825057;29;20117;-82
2022/03/23 03:26:55;;;;;;;72.97;48.85;;;;;;;;;;4810404;29;20375;-83
2022/03/23 03:29:22;;;;;;;78.65;49.60;;;;;;;;;;4825862;29;20069;-81
2022/03/23 03:31:48;;;;;;;72.32;46.92;;;;;;;;;;4810192;29;20065;-81
2022/03/23 03:34:14;;;;;;;72.72;48.60;;;;;;;;;;4825183;29;20141;-81
2022/03/23 03:36:41;;;;;;;67.32;45.60;;;;;;;;;;4811834;29;20092;-81
2022/03/23 03:39:07;;;;;;;69.63;46.00;;;;;;;;;;4825784;29;20529;-75
2022/03/23 03:41:34;;;;;;;69.63;47.25;;;;;;;;;;4826609;29;20054;-82
2022/03/23 03:44:00;;;;;;;74.90;47.72;;;;;;;;;;4824593;29;20104;-82
2022/03/23 03:46:27;;;;;;;72.70;47.88;;;;;;;;;;4810416;29;20475;-81
2022/03/23 03:48:53;;;;;;;72.63;46.45;;;;;;;;;;4810101;29;20145;-81
2022/03/23 03:51:19;;;;;;;79.80;50.40;;;;;;;;;;4824805;29;20455;-80
2022/03/23 03:53:45;;;;;;;67.40;45.80;;;;;;;;;;4824733;29;20046;-81
2022/03/23 03:56:11;;;;;;;79.97;49.80;;;;;;;;;;4824029;29;20057;-79
2022/03/23 03:58:38;;;;;;;67.13;45.85;;;;;;;;;;4825306;29;20137;-80
2022/03/23 04:01:04;;;;;;;78.20;50.30;;;;;;;;;;4809729;29;20054;-80
2022/03/23 04:03:30;;;;;;;69.32;45.85;;;;;;;;;;4809495;29;20198;-81
2022/03/23 04:05:57;;;;;;;73.43;48.00;;;;;;;;;;4809971;29;20046;-81
2022/03/23 04:08:23;;;;;;;71.28;48.22;;;;;;;;;;4824356;29;20054;-81
2022/03/23 04:10:49;;;;;;;71.20;46.80;;;;;;;;;;4824921;29;20383;-80
2022/03/23 04:13:15;;;;;;;71.97;46.47;;;;;;;;;;4809767;29;20288;-81
2022/03/23 04:15:42;;;;;;;73.15;46.15;;;;;;;;;;4823963;29;20045;-80
2022/03/23 04:18:08;;;;;;;74.40;48.38;;;;;;;;;;4809759;29;20054;-82
2022/03/23 04:20:34;;;;;;;66.05;44.95;;;;;;;;;;4808878;29;20066;-82
2022/03/23 04:23:00;;;;;;;65.70;45.72;;;;;;;;;;4809396;29;20065;-80
2022/03/23 04:25:26;;;;;;;70.50;46.10;;;;;;;;;;4824807;29;20050;-81
2022/03/23 04:27:57;;;;;;;66.50;44.45;;;;;;;;;;4809270;29;20088;-81
2022/03/23 04:30:23;;;;;;;70.80;44.72;;;;;;;;;;4823969;29;20058;-80
2022/03/23 04:32:50;;;;;;;67.72;45.80;;;;;;;;;;4824362;29;20060;-81
2022/03/23 04:35:17;;;;;;;72.93;46.75;;;;;;;;;;4808205;29;20488;-81
2022/03/23 04:37:44;;;;;;;73.22;46.03;;;;;;;;;;4809773;29;20053;-81
2022/03/23 04:40:10;;;;;;;71.40;47.00;;;;;;;;;;4808873;29;20141;-81
2022/03/23 04:42:37;;;;;;;74.93;47.22;;;;;;;;;;4824022;29;20103;-82
2022/03/23 04:45:04;;;;;;;68.90;45.60;;;;;;;;;;4810163;29;20065;-81
2022/03/23 04:47:30;;;;;;;72.40;48.10;;;;;;;;;;4825319;29;20080;-82
2022/03/23 04:49:57;;;;;;;75.40;49.05;;;;;;;;;;4824801;29;20209;-81
2022/03/23 04:52:23;;;;;;;80.68;50.10;;;;;;;;;;4823764;29;20383;-81
2022/03/23 04:54:49;;;;;;;74.82;49.83;;;;;;;;;;4808703;29;20046;-80
2022/03/23 04:57:16;;;;;;;72.68;45.58;;;;;;;;;;4824115;29;20057;-80
2022/03/23 04:59:42;;;;;;;76.47;47.17;;;;;;;;;;4808728;29;20061;-80
2022/03/23 05:02:08;;;;;;;76.65;47.65;;;;;;;;;;4823982;29;20072;-80
2022/03/23 05:04:35;;;;;;;76.47;49.35;;;;;;;;;;4823702;29;20400;-80
2022/03/23 05:07:01;;;;;;;76.20;47.40;;;;;;;;;;4824395;29;20123;-81
2022/03/23 05:09:27;;;;;;;73.35;47.83;;;;;;;;;;4808498;29;20058;-81
2022/03/23 05:11:53;;;;;;;72.72;47.15;;;;;;;;;;4809026;29;20054;-81
2022/03/23 05:14:19;;;;;;;71.35;45.22;;;;;;;;;;4823997;29;20097;-81
2022/03/23 05:16:45;;;;;;;76.25;49.15;;;;;;;;;;4808479;29;20065;-79
2022/03/23 05:19:11;;;;;;;75.20;47.03;;;;;;;;;;4824489;29;20046;-80
2022/03/23 05:21:38;;;;;;;69.00;46.08;;;;;;;;;;4808366;29;20143;-81
2022/03/23 05:24:04;;;;;;;74.60;45.90;;;;;;;;;;4809334;29;20062;-82
2022/03/23 05:26:30;;;;;;;72.85;48.22;;;;;;;;;;4808919;29;20061;-82
2022/03/23 05:28:56;;;;;;;73.15;49.60;;;;;;;;;;4824240;29;20054;-80
2022/03/23 05:31:22;;;;;;;76.72;48.00;;;;;;;;;;4823702;29;20050;-81
2022/03/23 05:33:48;;;;;;;74.15;48.63;;;;;;;;;;4809671;29;20054;-82
2022/03/23 05:36:14;;;;;;;80.47;49.20;;;;;;;;;;4809205;29;20054;-81
2022/03/23 05:38:40;;;;;;;77.32;50.10;;;;;;;;;;4828908;29;20054;-80
2022/03/23 05:41:06;;;;;;;84.20;50.08;;;;;;;;;;4824970;29;20288;-83
2022/03/23 05:43:32;;;;;;;78.65;49.97;;;;;;;;;;4823512;29;20096;-82
2022/03/23 05:45:58;;;;;;;78.32;48.90;;;;;;;;;;4809556;29;20042;-81
2022/03/23 05:48:24;;;;;;;79.18;50.95;;;;;;;;;;4811868;29;20061;-82
2022/03/23 05:50:50;;;;;;;73.88;48.78;;;;;;;;;;4826458;29;20097;-80
2022/03/23 05:53:16;;;;;;;72.95;45.97;;;;;;;;;;4826183;29;20057;-80
2022/03/23 05:55:43;;;;;;;80.40;49.30;;;;;;;;;;4811510;29;20056;-80
2022/03/23 05:58:09;;;;;;;75.47;47.35;;;;;;;;;;4812324;29;20391;-81
2022/03/23 06:00:35;;;;;;;84.40;52.33;;;;;;;;;;4826641;29;20054;-79
2022/03/23 06:03:01;;;;;;;81.82;51.47;;;;;;;;;;4825893;29;20046;-78
2022/03/23 06:05:27;;;;;;;81.78;51.33;;;;;;;;;;4830632;29;20085;-81
2022/03/23 06:07:53;;;;;;;82.35;53.20;;;;;;;;;;4830471;29;20054;-82
2022/03/23 06:10:19;;;;;;;80.07;50.67;;;;;;;;;;4816420;29;20046;-86
2022/03/23 06:12:45;;;;;;;75.53;51.80;;;;;;;;;;4814652;29;20144;-81
2022/03/23 06:15:11;;;;;;;74.50;50.25;;;;;;;;;;4827488;29;20477;-81
2022/03/23 06:17:39;;;;;;;76.22;49.20;;;;;;;;;;4811656;29;20205;-81
2022/03/23 06:20:06;;;;;;;74.72;49.45;;;;;;;;;;4826413;29;20528;-81
2022/03/23 06:22:32;;;;;;;72.25;49.42;;;;;;;;;;4808457;29;20068;-87
2022/03/23 06:24:58;;;;;;;75.95;49.92;;;;;;;;;;4824681;29;20353;-85
2022/03/23 06:27:25;;;;;;;72.55;50.10;;;;;;;;;;4810070;29;20508;-85
2022/03/23 06:29:51;;;;;;;71.50;51.15;;;;;;;;;;4811761;29;20058;-83
2022/03/23 06:32:18;;;;;;;71.93;49.90;;;;;;;;;;4825879;29;20049;-83
2022/03/23 06:34:44;;;;;;;72.43;49.28;;;;;;;;;;4812515;29;20056;-82
2022/03/23 06:37:10;;;;;;;67.78;47.53;;;;;;;;;;4845536;29;20061;-83
2022/03/23 06:39:36;;;;;;;71.70;49.50;;;;;;;;;;4845413;29;20096;-84
2022/03/23 06:42:02;;;;;;;68.80;49.60;;;;;;;;;;4830924;29;20053;-83
2022/03/23 06:44:28;;;;;;;69.05;48.00;;;;;;;;;;4846395;29;20080;-83
2022/03/23 06:46:54;;;;;;;71.10;48.85;;;;;;;;;;4831991;29;20046;-82
2022/03/23 06:49:20;;;;;;;68.40;48.13;;;;;;;;;;4831371;29;20057;-82
2022/03/23 06:51:46;;;;;;;63.30;46.90;;;;;;;;;;4830352;29;20387;-83
2022/03/23 06:54:12;;;;;;;66.18;46.72;;;;;;;;;;4830066;29;20045;-82
2022/03/23 06:56:38;;;;;;;62.72;44.78;;;;;;;;;;4844325;29;20128;-83
2022/03/23 06:59:05;;;;;;;66.25;46.97;;;;;;;;;;4829464;29;20053;-81
2022/03/23 07:01:31;;;;;;;66.15;53.70;;;;;;;;;;4843214;29;20449;-82
2022/03/23 07:03:57;;;;;;;;;;;;;;;;;;4844999;29;20056;-80
2022/03/23 07:06:23;;;;;;;;;;;;;;;;;;4830965;29;19924;-84
2022/03/23 07:11:33;;;;;;;;;;;;;;;;;;4845242;29;19987;-86
2022/03/23 07:13:59;;;;;;;;;;;;;;;;;;4845849;29;19924;-84
2022/03/23 07:16:25;;;;;;;;;;;;;;;;;;4829039;29;19924;-84
2022/03/23 07:18:51;;;;;;;;;;;;;;;;;;4845746;29;19924;-84
2022/03/23 07:21:17;;;;;;;;;;;;;;;;;;4853825;29;19988;-81
2022/03/23 07:23:43;;;;;;;;;;;;;;;;;;4862912;29;19924;-84
2022/03/23 07:26:09;;;;;;;;;;;;;;;;;;4853342;29;19926;-84
2022/03/23 07:28:35;;;;;;;;;;;;;;;;;;4847549;29;19924;-85
2022/03/23 07:31:01;;;;;;;;;;;;;;;;;;4832683;29;19924;-86
2022/03/23 07:33:28;;;;;;;;;;;;;;;;;;4845950;29;19924;-85
2022/03/23 07:35:54;;;;;;;;;;;;;;;;;;4820669;29;19924;-83
2022/03/23 07:38:20;;;;;;;;;;;;;;;;;;4826119;29;20364;-85
2022/03/23 07:40:46;;;;;;;;;;;;;;;;;;4810952;29;19924;-84
2022/03/23 07:43:12;;;;;;;;;;;;;;;;;;4810529;29;19928;-85
2022/03/23 07:45:38;;;;;;;;;;;;;;;;;;4825482;29;19931;-82
2022/03/23 07:48:04;;;;;;;;;;;;;;;;;;4810847;29;19924;-84
2022/03/23 07:50:30;;;;;;;;;;;;;;;;;;4811325;29;20000;-84
2022/03/23 07:52:57;;;;;;;;;;;;;;;;;;4825185;29;19925;-82
2022/03/23 07:55:23;;;;;;;;;;;;;;;;;;4810573;29;20478;-84
2022/03/23 07:57:49;;;;;;;;;;;;;;;;;;4825983;29;19932;-83
2022/03/23 08:00:15;;;;;;;;;;;;;;;;;;4810466;29;19958;-83
2022/03/23 08:02:41;;;;;;;;;;;;;;;;;;4825931;29;19935;-84
2022/03/23 08:05:06;;;;;;;;;;;;;;;;;;4826313;29;20300;-86
2022/03/23 08:07:32;;;;;;;;;;;;;;;;;;4825182;29;19925;-80
2022/03/23 08:09:58;;;;;;;;;;;;;;;;;;4824099;29;19977;-84
2022/03/23 08:12:25;;;;;;;;;;;;;;;;;;4824399;29;19925;-83
2022/03/23 08:14:51;;;;;;;;;;;;;;;;;;4823257;29;19932;-88
2022/03/23 08:17:17;;;;;;;;;;;;;;;;;;4823709;29;19977;-81
2022/03/23 08:19:43;;;;;;;;;;;;;;;;;;4823229;29;19924;-82
2022/03/23 08:22:09;;;;;;;;;;;;;;;;;;4823154;29;19924;-82
2022/03/23 08:24:35;;;;;;;;;;;;;;;;;;4807401;29;20376;-84
2022/03/23 08:27:01;;;;;;;;;;;;;;;;;;4808310;29;19925;-81
2022/03/23 08:29:27;;;;;;;;;;;;;;;;;;4807366;29;19932;-87
2022/03/23 08:31:53;;;;;;;;;;;;;;;;;;4809842;29;19924;-87
2022/03/23 08:34:19;;;;;;;;;;;;;;;;;;4809319;29;19947;-83
2022/03/23 08:36:46;;;;;;;;;;;;;;;;;;4813832;29;20135;-89
2022/03/23 08:39:12;;;;;;;;;;;;;;;;;;4811526;29;19949;-84
2022/03/23 08:41:38;;;;;;;;;;;;;;;;;;4810557;29;19925;-85
2022/03/23 08:44:04;;;;;;;;;;;;;;;;;;4826499;29;19931;-84
2022/03/23 08:46:30;;;;;;;;;;;;;;;;;;4824994;29;20040;-84
2022/03/23 08:48:56;;;;;;;;;;;;;;;;;;4810497;29;19924;-86
2022/03/23 08:51:22;;;;;;;;;;;;;;;;;;4826353;29;19977;-85
2022/03/23 08:53:48;;;;;;;;;;;;;;;;;;4811010;29;19924;-84
2022/03/23 08:56:14;;;;;;;;;;;;;;;;;;4810740;29;19996;-84
2022/03/23 08:58:47;;;;;;;;;;;;;;;;;;4811113;29;19924;-85
2022/03/23 09:01:13;;;;;;;;;;;;;;;;;;4811002;29;19931;-83
2022/03/23 09:03:39;;;;;;;;;;;;;;;;;;4825986;29;19924;-86
2022/03/23 09:06:05;;;;;;;;;;;;;;;;;;4827104;29;19930;-87
2022/03/23 09:08:31;;;;;;;;;;;;;;;;;;4811853;29;19980;-87
2022/03/23 09:10:57;;;;;;;;;;;;;;;;;;4827548;29;19924;-87
2022/03/23 09:13:23;;;;;;;;;;;;;;;;;;4811703;29;19993;-83
2022/03/23 09:15:49;;;;;;;;;;;;;;;;;;4813343;29;19924;-87
2022/03/23 09:18:14;;;;;;;;;;;;;;;;;;4813017;29;20472;-87
2022/03/23 09:20:40;;;;;;;;;;;;;;;;;;4811860;29;20277;-88
2022/03/23 09:23:08;;;;;;;;;;;;;;;;;;4830653;29;20265;-84
2022/03/23 09:25:34;;;;;;;;;;;;;;;;;;4829124;29;19976;-87
2022/03/23 09:28:01;;;;;;;;;;;;;;;;;;4814558;29;19989;-85
2022/03/23 09:30:27;;;;;;;;;;;;;;;;;;4814149;29;19948;-86
2022/03/23 09:32:53;;;;;;;31.70;27.50;;;;;;;;;;4813994;29;20015;-86
2022/03/23 09:35:19;;;;;;;30.90;26.55;;;;;;;;;;4818012;29;20072;-85
2022/03/23 09:37:48;;;;;;;32.50;26.10;;;;;;;;;;4847017;29;20478;-84
2022/03/23 09:40:16;;;;;;;30.77;26.42;;;;;;;;;;4846388;29;20060;-85
2022/03/23 09:42:43;;;;;;;27.83;24.70;;;;;;;;;;4830582;29;20053;-85
2022/03/23 09:45:11;;;;;;;27.80;23.88;;;;;;;;;;4846575;29;20053;-83
2022/03/23 09:47:38;;;;;;;31.38;24.98;;;;;;;;;;4846336;29;20053;-86
2022/03/23 09:50:04;;;;;;;31.75;25.98;;;;;;;;;;4832114;29;20125;-84
2022/03/23 09:52:30;;;;;;;34.47;26.27;;;;;;;;;;4832109;29;20121;-81
2022/03/23 09:54:56;;;;;;;30.40;25.83;;;;;;;;;;4830170;29;20045;-85
2022/03/23 09:57:22;;;;;;;29.73;23.65;;;;;;;;;;4846998;29;20068;-88
2022/03/23 09:59:48;;;;;;;26.92;23.40;;;;;;;;;;4834853;29;20149;-90
2022/03/23 10:02:33;;;;;;;31.00;24.08;;;;;;;;;;4832936;29;20057;-87
2022/03/23 10:05:08;;;;;;;25.83;22.20;;;;;;;;;;4831276;29;20553;-87
2022/03/23 10:07:47;;;;;;;32.38;21.92;;;;;;;;;;4830405;29;20470;-84
2022/03/23 10:10:43;;;;;;;27.70;22.08;;;;;;;;;;4846410;29;20053;-87
2022/03/23 10:13:27;;;;;;;27.05;21.77;;;;;;;;;;4816153;29;20069;-88
2022/03/23 10:16:06;;;;;;;25.35;20.42;;;;;;;;;;4846904;29;20252;-88
2022/03/23 10:18:51;;;;;;;24.20;21.55;;;;;;;;;;4847485;29;20097;-89
2022/03/23 10:21:18;;;;;;;29.40;20.88;;;;;;;;;;4831103;29;20054;-87
2022/03/23 10:23:59;;;;;;;25.40;20.90;;;;;;;;;;4831075;29;20093;-90
2022/03/23 10:26:26;;;;;;;24.25;19.52;;;;;;;;;;4832257;29;20060;-89
2022/03/23 10:28:52;;;;;;;26.15;20.80;;;;;;;;;;4847553;29;20136;-88
2022/03/23 10:31:19;;;;;;;25.08;19.25;;;;;;;;;;4831566;29;20446;-86
2022/03/23 10:33:56;;;;;;;22.98;18.75;;;;;;;;;;4831762;29;20049;-89
2022/03/23 10:36:23;;;;;;;23.83;18.80;;;;;;;;;;4845343;29;20065;-83
2022/03/23 10:38:49;;;;;;;24.05;18.08;;;;;;;;;;4829891;29;20052;-84
2022/03/23 10:41:24;;;;;;;24.50;17.58;;;;;;;;;;4831281;29;20053;-85
2022/03/23 10:43:50;;;;;;;24.80;16.20;;;;;;;;;;4830705;29;20058;-85
2022/03/23 10:46:17;;;;;;;22.35;17.25;;;;;;;;;;4831107;29;20053;-84
2022/03/23 10:48:59;;;;;;;24.17;17.42;;;;;;;;;;4846200;29;20136;-84
2022/03/23 10:51:32;;;;;;;23.33;18.20;;;;;;;;;;4831132;29;20060;-85
2022/03/23 10:53:59;;;;;;;23.27;17.13;;;;;;;;;;4830690;29;20049;-82
2022/03/23 10:56:51;;;;;;;21.00;16.48;;;;;;;;;;4830564;29;20097;-85
2022/03/23 10:59:17;;;;;;;25.00;14.68;;;;;;;;;;4842978;29;20407;-85
2022/03/23 11:01:58;;;;;;;28.27;16.98;;;;;;;;;;4845610;29;20041;-84
2022/03/23 11:04:28;;;;;;;23.40;14.25;;;;;;;;;;4845629;29;20081;-84
2022/03/23 11:06:55;;;;;;;20.67;14.32;;;;;;;;;;4830016;29;20101;-87
2022/03/23 11:18:06;;;;;;;28.88;15.93;;;;;;;;;;4843691;29;20160;-85
2022/03/23 11:20:44;;;;;;;22.90;15.75;;;;;;;;;;4829941;29;20485;-84
2022/03/23 11:23:19;;;;;;;24.77;16.02;;;;;;;;;;4828917;29;20053;-86
2022/03/23 11:25:49;;;;;;;21.10;14.73;;;;;;;;;;4828551;29;20053;-85
2022/03/23 11:28:16;;;;;;;24.45;14.25;;;;;;;;;;4829203;29;20057;-84
2022/03/23 11:30:43;;;;;;;24.00;13.35;;;;;;;;;;4843881;29;20085;-84
2022/03/23 11:33:10;;;;;;;22.08;13.95;;;;;;;;;;4843626;29;20052;-85
2022/03/23 11:35:38;;;;;;;21.58;14.27;;;;;;;;;;4823302;29;20114;-84
2022/03/23 11:38:05;;;;;;;23.33;13.68;;;;;;;;;;4809974;29;20050;-83
2022/03/23 11:40:31;;;;;;;20.55;12.18;;;;;;;;;;4809857;29;20060;-84
2022/03/23 11:42:58;;;;;;;26.23;11.73;;;;;;;;;;4809683;29;20096;-82
2022/03/23 11:45:24;;;;;;;20.60;12.40;;;;;;;;;;4809364;29;20502;-86
2022/03/23 11:47:53;;;;;;;19.15;12.88;;;;;;;;;;4825602;29;20042;-85
2022/03/23 11:50:26;;;;;;;19.90;9.00;;;;;;;;;;4825695;29;20490;-82
2022/03/23 11:52:52;;;;;;;23.13;8.50;;;;;;;;;;4824064;29;20454;-85
2022/03/23 11:55:37;;;;;;;21.08;8.55;;;;;;;;;;4809640;29;20136;-85
2022/03/23 11:58:08;;;;;;;18.73;10.13;;;;;;;;;;4824526;29;20165;-76
2022/03/23 12:00:42;;;;;;;23.83;12.30;;;;;;;;;;4808122;29;20063;-78
2022/03/23 12:03:08;;;;;;;17.88;11.93;;;;;;;;;;4809151;29;20501;-82
2022/03/23 12:05:35;;;;;;;22.27;10.85;;;;;;;;;;4810177;29;20049;-80
2022/03/23 12:08:02;;;;;;;26.40;11.20;;;;;;;;;;4809625;29;20309;-81
2022/03/23 12:10:31;;;;;;;29.88;11.50;;;;;;;;;;4809420;29;20670;-83
2022/03/23 12:12:57;;;;;;;24.10;11.68;;;;;;;;;;4809263;29;20436;-84
2022/03/23 12:15:23;;;;;;;20.13;11.60;;;;;;;;;;4810884;29;20054;-86
2022/03/23 12:17:53;;;;;;;21.73;11.43;;;;;;;;;;4811869;29;20060;-87
2022/03/23 12:20:27;;;;;;;25.85;11.88;;;;;;;;;;4812230;29;20513;-84
2022/03/23 12:22:55;;;;;;;23.27;12.50;;;;;;;;;;4827271;29;20049;-80
2022/03/23 12:25:24;;;;;;;27.92;12.45;;;;;;;;;;4825494;29;20517;-84
2022/03/23 12:27:53;;;;;;;37.58;11.48;;;;;;;;;;4821818;29;20060;-76
2022/03/23 12:30:25;;;;;;;25.23;10.20;;;;;;;;;;4808606;29;20085;-76
2022/03/23 12:32:51;;;;;;;20.27;8.93;;;;;;;;;;4808894;29;20053;-75
2022/03/23 12:35:29;;;;;;;28.05;10.02;;;;;;;;;;4826494;29;20148;-76
2022/03/23 12:37:55;;;;;;;23.90;10.57;;;;;;;;;;4841462;29;20118;-76
2022/03/23 12:40:21;;;;;;;22.95;9.60;;;;;;;;;;4827338;29;20053;-76
2022/03/23 12:42:47;;;;;;;23.33;9.18;;;;;;;;;;4827052;29;20060;-78
2022/03/23 12:45:16;;;;;;;21.17;10.35;;;;;;;;;;4843055;29;20053;-77
2022/03/23 12:47:50;;;;;;;28.55;11.02;;;;;;;;;;4828984;29;20053;-77
2022/03/23 12:58:35;;;;;;;30.05;11.85;;;;;;;;;;4841460;29;20528;-76
2022/03/23 13:01:10;;;;;;;179.85;19.02;;;;;;;;;;4827081;29;20144;-79
2022/03/23 13:03:41;;;;;;;18.88;10.38;;;;;;;;;;4827447;29;20060;-77
2022/03/23 13:06:08;;;;;;;27.23;10.25;;;;;;;;;;4841396;29;20053;-80
2022/03/23 13:08:35;;;;;;;21.52;9.68;;;;;;;;;;4826613;29;20109;-80
2022/03/23 13:11:02;;;;;;;19.55;9.68;;;;;;;;;;4842132;29;20197;-79
2022/03/23 13:13:29;;;;;;;20.25;9.82;;;;;;;;;;4841907;29;20402;-79
2022/03/23 13:15:56;;;;;;;30.23;11.57;;;;;;;;;;4827161;29;20405;-80
2022/03/23 13:18:26;;;;;;;24.23;11.45;;;;;;;;;;4827327;29;20042;-80
2022/03/23 13:20:52;;;;;;;22.83;11.00;;;;;;;;;;4842246;29;20049;-80
2022/03/23 13:23:19;;;;;;;25.10;10.18;;;;;;;;;;4826759;29;20494;-81
2022/03/23 13:25:45;;;;;;;20.80;9.38;;;;;;;;;;4826619;29;20140;-81
2022/03/23 13:28:15;;;;;;;22.23;9.02;;;;;;;;;;4827447;29;20120;-82
2022/03/23 13:30:42;;;;;;;25.17;9.38;;;;;;;;;;4826529;29;20057;-81
2022/03/23 13:33:09;;;;;;;21.55;8.75;;;;;;;;;;4842507;29;20398;-79
2022/03/23 13:35:42;;;;;;;26.42;8.77;;;;;;;;;;4838102;29;20098;-86
2022/03/23 13:38:08;;;;;;;20.40;9.50;;;;;;;;;;4823199;29;20083;-84
2022/03/23 13:43:23;;;;;;;34.95;9.90;;;;;;;;;;4824703;29;20046;-82
2022/03/23 13:45:49;;;;;;;22.40;8.75;;;;;;;;;;4808934;29;20053;-80
2022/03/23 13:48:16;;;;;;;19.40;7.75;;;;;;;;;;4824220;29;20050;-81
2022/03/23 13:50:50;;;;;;;17.83;8.65;;;;;;;;;;4809718;29;20056;-81
2022/03/23 13:53:19;;;;;;;26.83;9.65;;;;;;;;;;4824397;29;20132;-82
2022/03/23 13:55:49;;;;;;;18.67;9.45;;;;;;;;;;4810179;29;20133;-82
2022/03/23 13:58:16;;;;;;;21.02;9.25;;;;;;;;;;4809398;29;20056;-81
2022/03/23 14:00:43;;;;;;;20.60;8.98;;;;;;;;;;4824994;29;20398;-81
2022/03/23 14:03:09;;;;;;;26.77;10.32;;;;;;;;;;4823700;29;20062;-82
2022/03/23 14:05:36;;;;;;;22.80;9.43;;;;;;;;;;4824530;29;20146;-82
2022/03/23 14:08:02;;;;;;;23.42;10.40;;;;;;;;;;4810894;29;20140;-81
2022/03/23 14:10:36;;;;;;;23.75;10.80;;;;;;;;;;4827688;29;20581;-81
2022/03/23 14:13:07;;;;;;;24.67;10.65;;;;;;;;;;4826572;29;20054;-81
2022/03/23 14:15:36;;;;;;;21.02;9.65;;;;;;;;;;4811490;29;20243;-81
2022/03/23 14:18:03;;;;;;;26.02;10.02;;;;;;;;;;4826521;29;20062;-81
2022/03/23 14:20:30;;;;;;;17.98;8.57;;;;;;;;;;4827117;29;20056;-81
2022/03/23 14:22:56;;;;;;;18.33;8.73;;;;;;;;;;4811562;29;20054;-80
2022/03/23 14:25:24;;;;;;;22.30;9.05;;;;;;;;;;4826679;29;20049;-80
2022/03/23 14:27:54;;;;;;;20.35;9.10;;;;;;;;;;4812095;29;20511;-80
2022/03/23 14:30:21;;;;;;;25.00;8.18;;;;;;;;;;4812594;29;20053;-80
2022/03/23 14:32:50;;;;;;;24.65;8.05;;;;;;;;;;4827855;29;20046;-79
2022/03/23 14:35:21;;;;;;;19.92;8.00;;;;;;;;;;4828166;29;20050;-80
2022/03/23 14:37:48;;;;;;;21.92;7.50;;;;;;;;;;4845593;29;20053;-80
2022/03/23 14:40:28;;;;;;;22.10;7.28;;;;;;;;;;4845004;29;20045;-80
2022/03/23 14:42:56;;;;;;;22.90;7.07;;;;;;;;;;4845301;29;20053;-80
2022/03/23 14:45:30;;;;;;;20.45;6.80;;;;;;;;;;4830037;29;20117;-80
2022/03/23 14:47:57;;;;;;;17.95;6.72;;;;;;;;;;4829754;29;20051;-80
2022/03/23 14:50:24;;;;;;;20.27;7.53;;;;;;;;;;4830496;29;20065;-81
2022/03/23 14:52:50;;;;;;;24.50;8.05;;;;;;;;;;4844891;29;20490;-80
2022/03/23 14:55:16;;;;;;;18.30;7.72;;;;;;;;;;4830189;29;20085;-81
2022/03/23 14:57:42;;;;;;;23.58;7.80;;;;;;;;;;4829374;29;20061;-84
2022/03/23 15:00:09;;;;;;;20.25;7.72;;;;;;;;;;4828950;29;20517;-81
2022/03/23 15:02:36;;;;;;;17.90;7.35;;;;;;;;;;4830554;29;20056;-80
2022/03/23 15:05:02;;;;;;;24.30;9.68;;;;;;;;;;4829374;29;20069;-81
2022/03/23 15:13:15;;;;;;;15.85;9.07;;;;;;;;;;4832398;29;20450;-80
2022/03/23 15:15:44;;;;;;;;;;;;;;;;;;4832683;29;20105;-81
2022/03/23 15:18:11;;;;;;;21.92;9.57;;;;;;;;;;4844547;29;19939;-81
2022/03/23 15:20:37;;;;;;;26.02;9.23;;;;;;;;;;4829164;29;20054;-78